createdAt,value
2018-03-04T00:00:03.486Z,1.35
2018-03-04T00:00:07.602Z,1.35
2018-03-04T00:00:11.503Z,1.36
2018-03-04T00:00:15.730Z,1.36
2018-03-04T00:00:19.853Z,1.35
2018-03-04T00:00:24.121Z,1.36
2018-03-04T00:00:28.343Z,1.35
2018-03-04T00:00:32.356Z,1.35
2018-03-04T00:00:36.373Z,1.36
2018-03-04T00:00:40.311Z,1.35
2018-03-04T00:00:44.739Z,1.35
2018-03-04T00:00:48.857Z,1.35
2018-03-04T00:00:52.871Z,1.35
2018-03-04T00:00:56.872Z,1.35
2018-03-04T00:01:00.995Z,1.35
2018-03-04T00:01:05.111Z,1.35
2018-03-04T00:01:09.441Z,1.35
2018-03-04T00:01:13.444Z,1.34
2018-03-04T00:01:17.344Z,1.35
2018-03-04T00:01:21.359Z,1.35
2018-03-04T00:01:25.584Z,1.36
2018-03-04T00:01:29.695Z,1.35
2018-03-04T00:01:33.915Z,1.35
2018-03-04T00:01:38.135Z,1.35
2018-03-04T00:01:42.253Z,1.35
2018-03-04T00:01:46.474Z,1.34
2018-03-04T00:01:50.588Z,1.36
2018-03-04T00:01:54.602Z,1.35
2018-03-04T00:01:58.611Z,1.35
2018-03-04T00:02:02.841Z,1.35
2018-03-04T00:02:06.737Z,1.35
2018-03-04T00:02:10.855Z,1.35
2018-03-04T00:02:14.975Z,1.35
2018-03-04T00:02:18.984Z,1.35
2018-03-04T00:02:22.881Z,1.35
2018-03-04T00:02:26.941Z,1.35
2018-03-04T00:02:31.156Z,1.36
2018-03-04T00:02:35.158Z,1.35
2018-03-04T00:02:39.168Z,1.35
2018-03-04T00:02:43.070Z,1.36
2018-03-04T00:02:47.176Z,1.35
2018-03-04T00:02:51.081Z,1.35
2018-03-04T00:02:55.096Z,1.34
2018-03-04T00:02:59.215Z,1.34
2018-03-04T00:03:03.268Z,1.35
2018-03-04T00:03:07.380Z,1.35
2018-03-04T00:03:11.386Z,1.35
2018-03-04T00:03:15.513Z,1.35
2018-03-04T00:03:19.423Z,1.34
2018-03-04T00:03:23.647Z,1.35
2018-03-04T00:03:27.756Z,1.36
2018-03-04T00:03:31.760Z,1.35
2018-03-04T00:03:35.869Z,1.35
2018-03-04T00:03:39.872Z,1.34
2018-03-04T00:03:44.096Z,1.35
2018-03-04T00:03:48.425Z,1.35
2018-03-04T00:03:52.321Z,1.35
2018-03-04T00:03:56.543Z,1.35
2018-03-04T00:04:00.442Z,1.35
2018-03-04T00:04:04.660Z,1.35
2018-03-04T00:04:08.772Z,1.34
2018-03-04T00:04:13.209Z,1.35
2018-03-04T00:04:17.428Z,1.35
2018-03-04T00:04:21.330Z,1.35
2018-03-04T00:04:25.448Z,1.36
2018-03-04T00:04:29.563Z,1.35
2018-03-04T00:04:33.788Z,1.34
2018-03-04T00:04:37.899Z,1.35
2018-03-04T00:04:42.016Z,1.35
2018-03-04T00:04:46.022Z,1.34
2018-03-04T00:04:50.364Z,1.35
2018-03-04T00:04:54.588Z,1.35
2018-03-04T00:04:58.483Z,1.34
2018-03-04T00:05:02.737Z,1.35
2018-03-04T00:05:06.861Z,1.35
2018-03-04T00:05:10.979Z,1.35
2018-03-04T00:05:14.988Z,1.34
2018-03-04T00:05:19.208Z,1.34
2018-03-04T00:05:23.323Z,1.34
2018-03-04T00:05:27.651Z,1.34
2018-03-04T00:05:31.762Z,1.34
2018-03-04T00:05:35.875Z,1.34
2018-03-04T00:05:39.876Z,1.34
2018-03-04T00:05:44.106Z,1.34
2018-03-04T00:05:47.899Z,1.34
2018-03-04T00:05:52.018Z,1.35
2018-03-04T00:05:56.250Z,1.35
2018-03-04T00:06:00.361Z,1.35
2018-03-04T00:06:04.649Z,1.35
2018-03-04T00:06:08.645Z,1.35
2018-03-04T00:06:12.755Z,1.35
2018-03-04T00:06:16.767Z,1.34
2018-03-04T00:06:20.771Z,1.35
2018-03-04T00:06:24.995Z,1.34
2018-03-04T00:06:29.210Z,1.35
2018-03-04T00:06:33.217Z,1.34
2018-03-04T00:06:37.497Z,1.35
2018-03-04T00:06:41.609Z,1.35
2018-03-04T00:06:45.400Z,1.34
2018-03-04T00:06:49.562Z,1.34
2018-03-04T00:06:53.789Z,1.35
2018-03-04T00:06:57.901Z,1.35
2018-03-04T00:07:02.012Z,1.35
2018-03-04T00:07:06.178Z,1.33
2018-03-04T00:07:10.080Z,1.34
2018-03-04T00:07:14.297Z,1.34
2018-03-04T00:07:18.412Z,1.34
2018-03-04T00:07:22.421Z,1.34
2018-03-04T00:07:26.646Z,1.34
2018-03-04T00:07:30.435Z,1.34
2018-03-04T00:07:34.470Z,1.34
2018-03-04T00:07:38.482Z,1.35
2018-03-04T00:07:42.813Z,1.34
2018-03-04T00:07:46.932Z,1.33
2018-03-04T00:07:50.835Z,1.34
2018-03-04T00:07:54.732Z,1.34
2018-03-04T00:07:58.957Z,1.33
2018-03-04T00:08:03.066Z,1.33
2018-03-04T00:08:07.072Z,1.34
2018-03-04T00:08:11.192Z,1.33
2018-03-04T00:08:15.203Z,1.34
2018-03-04T00:08:19.209Z,1.33
2018-03-04T00:08:23.288Z,1.33
2018-03-04T00:08:27.824Z,1.33
2018-03-04T00:08:32.065Z,1.34
2018-03-04T00:08:36.194Z,1.34
2018-03-04T00:08:40.304Z,1.33
2018-03-04T00:08:44.574Z,1.33
2018-03-04T00:08:48.531Z,1.33
2018-03-04T00:08:52.534Z,1.33
2018-03-04T00:08:56.543Z,1.33
2018-03-04T00:09:00.445Z,1.33
2018-03-04T00:09:04.397Z,1.33
2018-03-04T00:09:08.764Z,1.33
2018-03-04T00:09:12.882Z,1.33
2018-03-04T00:09:16.790Z,1.33
2018-03-04T00:09:20.902Z,1.33
2018-03-04T00:09:24.921Z,1.33
2018-03-04T00:09:29.037Z,1.33
2018-03-04T00:09:33.161Z,1.33
2018-03-04T00:09:37.176Z,1.33
2018-03-04T00:09:41.443Z,1.33
2018-03-04T00:09:45.773Z,1.34
2018-03-04T00:09:49.779Z,1.34
2018-03-04T00:09:54.002Z,1.33
2018-03-04T00:09:58.170Z,1.33
2018-03-04T00:10:02.509Z,1.34
2018-03-04T00:10:06.628Z,1.32
2018-03-04T00:10:10.636Z,1.33
2018-03-04T00:10:14.645Z,1.33
2018-03-04T00:10:18.438Z,1.34
2018-03-04T00:10:22.342Z,1.34
2018-03-04T00:10:26.456Z,1.33
2018-03-04T00:10:30.570Z,1.33
2018-03-04T00:10:34.794Z,1.33
2018-03-04T00:10:38.800Z,1.33
2018-03-04T00:10:42.819Z,1.33
2018-03-04T00:10:46.727Z,1.33
2018-03-04T00:10:50.841Z,1.34
2018-03-04T00:10:54.845Z,1.33
2018-03-04T00:10:59.084Z,1.33
2018-03-04T00:11:02.984Z,1.33
2018-03-04T00:11:06.995Z,1.33
2018-03-04T00:11:11.106Z,1.33
2018-03-04T00:11:15.122Z,1.33
2018-03-04T00:11:19.138Z,1.33
2018-03-04T00:11:23.363Z,1.33
2018-03-04T00:11:27.476Z,1.33
2018-03-04T00:11:31.692Z,1.33
2018-03-04T00:11:35.703Z,1.33
2018-03-04T00:11:39.711Z,1.33
2018-03-04T00:11:43.947Z,1.33
2018-03-04T00:11:48.066Z,1.32
2018-03-04T00:11:52.184Z,1.32
2018-03-04T00:11:56.411Z,1.33
2018-03-04T00:12:00.430Z,1.33
2018-03-04T00:12:04.652Z,1.32
2018-03-04T00:12:08.655Z,1.31
2018-03-04T00:12:12.768Z,1.33
2018-03-04T00:12:16.771Z,1.32
2018-03-04T00:12:20.885Z,1.33
2018-03-04T00:12:24.897Z,1.33
2018-03-04T00:12:28.798Z,1.32
2018-03-04T00:12:33.122Z,1.32
2018-03-04T00:12:37.236Z,1.33
2018-03-04T00:12:41.612Z,1.32
2018-03-04T00:12:45.849Z,1.32
2018-03-04T00:12:49.965Z,1.33
2018-03-04T00:12:53.972Z,1.33
2018-03-04T00:12:57.978Z,1.33
2018-03-04T00:13:02.093Z,1.32
2018-03-04T00:13:06.106Z,1.32
2018-03-04T00:13:10.330Z,1.33
2018-03-04T00:13:14.336Z,1.33
2018-03-04T00:13:18.554Z,1.32
2018-03-04T00:13:22.702Z,1.32
2018-03-04T00:13:26.817Z,1.33
2018-03-04T00:13:31.046Z,1.32
2018-03-04T00:13:35.277Z,1.32
2018-03-04T00:13:39.288Z,1.32
2018-03-04T00:13:43.296Z,1.32
2018-03-04T00:13:47.300Z,1.32
2018-03-04T00:13:51.429Z,1.32
2018-03-04T00:13:55.539Z,1.32
2018-03-04T00:13:59.652Z,1.32
2018-03-04T00:14:04.061Z,1.31
2018-03-04T00:14:08.386Z,1.31
2018-03-04T00:14:12.511Z,1.31
2018-03-04T00:14:16.302Z,1.32
2018-03-04T00:14:20.208Z,1.32
2018-03-04T00:14:24.323Z,1.32
2018-03-04T00:14:28.356Z,1.31
2018-03-04T00:14:32.584Z,1.32
2018-03-04T00:14:36.700Z,1.32
2018-03-04T00:14:40.922Z,1.32
2018-03-04T00:14:44.939Z,1.31
2018-03-04T00:14:49.053Z,1.32
2018-03-04T00:14:52.953Z,1.32
2018-03-04T00:14:57.064Z,1.31
2018-03-04T00:15:01.178Z,1.32
2018-03-04T00:15:05.230Z,1.31
2018-03-04T00:15:09.135Z,1.31
2018-03-04T00:15:13.035Z,1.32
2018-03-04T00:15:17.262Z,1.31
2018-03-04T00:15:21.406Z,1.32
2018-03-04T00:15:25.629Z,1.31
2018-03-04T00:15:29.736Z,1.32
2018-03-04T00:15:33.849Z,1.31
2018-03-04T00:15:37.867Z,1.33
2018-03-04T00:15:41.976Z,1.31
2018-03-04T00:15:46.094Z,1.32
2018-03-04T00:15:50.204Z,1.32
2018-03-04T00:15:54.434Z,1.31
2018-03-04T00:15:58.762Z,1.3
2018-03-04T00:16:02.768Z,1.31
2018-03-04T00:16:06.668Z,1.31
2018-03-04T00:16:11.124Z,1.31
2018-03-04T00:16:15.347Z,1.31
2018-03-04T00:16:19.574Z,1.31
2018-03-04T00:16:23.948Z,1.31
2018-03-04T00:16:28.062Z,1.31
2018-03-04T00:16:32.076Z,1.31
2018-03-04T00:16:36.192Z,1.31
2018-03-04T00:16:40.418Z,1.31
2018-03-04T00:16:44.764Z,1.31
2018-03-04T00:16:48.666Z,1.32
2018-03-04T00:16:52.780Z,1.31
2018-03-04T00:16:56.570Z,1.31
2018-03-04T00:17:00.679Z,1.32
2018-03-04T00:17:04.793Z,1.31
2018-03-04T00:17:09.013Z,1.32
2018-03-04T00:17:13.025Z,1.31
2018-03-04T00:17:17.147Z,1.32
2018-03-04T00:17:21.269Z,1.32
2018-03-04T00:17:25.498Z,1.3
2018-03-04T00:17:29.619Z,1.3
2018-03-04T00:17:33.847Z,1.31
2018-03-04T00:17:37.745Z,1.31
2018-03-04T00:17:41.530Z,1.31
2018-03-04T00:17:45.759Z,1.31
2018-03-04T00:17:50.092Z,1.32
2018-03-04T00:17:54.308Z,1.31
2018-03-04T00:17:58.308Z,1.31
2018-03-04T00:18:02.522Z,1.3
2018-03-04T00:18:06.529Z,1.3
2018-03-04T00:18:10.756Z,1.31
2018-03-04T00:18:14.773Z,1.3
2018-03-04T00:18:18.897Z,1.31
2018-03-04T00:18:22.794Z,1.31
2018-03-04T00:18:26.689Z,1.3
2018-03-04T00:18:30.912Z,1.31
2018-03-04T00:18:35.134Z,1.3
2018-03-04T00:18:39.243Z,1.3
2018-03-04T00:18:43.365Z,1.31
2018-03-04T00:18:47.723Z,1.31
2018-03-04T00:18:51.625Z,1.31
2018-03-04T00:18:55.741Z,1.31
2018-03-04T00:18:59.640Z,1.3
2018-03-04T00:19:03.948Z,1.3
2018-03-04T00:19:08.063Z,1.3
2018-03-04T00:19:12.071Z,1.31
2018-03-04T00:19:16.105Z,1.31
2018-03-04T00:19:20.223Z,1.31
2018-03-04T00:19:24.452Z,1.31
2018-03-04T00:19:28.352Z,1.31
2018-03-04T00:19:32.579Z,1.31
2018-03-04T00:19:36.591Z,1.31
2018-03-04T00:19:40.816Z,1.31
2018-03-04T00:19:44.942Z,1.31
2018-03-04T00:19:49.053Z,1.31
2018-03-04T00:19:53.161Z,1.31
2018-03-04T00:19:57.284Z,1.3
2018-03-04T00:20:01.186Z,1.31
2018-03-04T00:20:05.202Z,1.31
2018-03-04T00:20:09.204Z,1.31
2018-03-04T00:20:13.327Z,1.31
2018-03-04T00:20:17.443Z,1.3
2018-03-04T00:20:21.450Z,1.31
2018-03-04T00:20:25.780Z,1.31
2018-03-04T00:20:29.897Z,1.31
2018-03-04T00:20:33.901Z,1.31
2018-03-04T00:20:38.123Z,1.3
2018-03-04T00:20:42.130Z,1.31
2018-03-04T00:20:46.247Z,1.31
2018-03-04T00:20:50.395Z,1.31
2018-03-04T00:20:54.396Z,1.31
2018-03-04T00:20:58.627Z,1.32
2018-03-04T00:21:02.740Z,1.3
2018-03-04T00:21:06.536Z,1.31
2018-03-04T00:21:10.647Z,1.32
2018-03-04T00:21:14.761Z,1.31
2018-03-04T00:21:18.982Z,1.31
2018-03-04T00:21:22.888Z,1.32
2018-03-04T00:21:26.680Z,1.31
2018-03-04T00:21:30.584Z,1.31
2018-03-04T00:21:34.601Z,1.31
2018-03-04T00:21:38.716Z,1.31
2018-03-04T00:21:42.946Z,1.31
2018-03-04T00:21:47.168Z,1.31
2018-03-04T00:21:51.067Z,1.31
2018-03-04T00:21:55.184Z,1.31
2018-03-04T00:21:59.296Z,1.31
2018-03-04T00:22:03.421Z,1.31
2018-03-04T00:22:07.536Z,1.31
2018-03-04T00:22:11.434Z,1.31
2018-03-04T00:22:15.548Z,1.31
2018-03-04T00:22:19.668Z,1.32
2018-03-04T00:22:23.895Z,1.31
2018-03-04T00:22:28.008Z,1.31
2018-03-04T00:22:31.798Z,1.31
2018-03-04T00:22:35.807Z,1.31
2018-03-04T00:22:39.814Z,1.31
2018-03-04T00:22:43.711Z,1.32
2018-03-04T00:22:47.939Z,1.31
2018-03-04T00:22:51.948Z,1.31
2018-03-04T00:22:56.067Z,1.31
2018-03-04T00:23:00.295Z,1.31
2018-03-04T00:23:04.731Z,1.31
2018-03-04T00:23:08.844Z,1.32
2018-03-04T00:23:12.640Z,1.32
2018-03-04T00:23:16.645Z,1.32
2018-03-04T00:23:20.652Z,1.32
2018-03-04T00:23:24.659Z,1.31
2018-03-04T00:23:28.771Z,1.33
2018-03-04T00:23:32.889Z,1.32
2018-03-04T00:23:37.115Z,1.32
2018-03-04T00:23:41.235Z,1.32
2018-03-04T00:23:45.461Z,1.32
2018-03-04T00:23:49.790Z,1.31
2018-03-04T00:23:53.908Z,1.32
2018-03-04T00:23:57.921Z,1.32
2018-03-04T00:24:02.043Z,1.32
2018-03-04T00:24:06.155Z,1.31
2018-03-04T00:24:10.160Z,1.32
2018-03-04T00:24:14.278Z,1.31
2018-03-04T00:24:18.511Z,1.32
2018-03-04T00:24:22.520Z,1.32
2018-03-04T00:24:26.868Z,1.33
2018-03-04T00:24:30.880Z,1.31
2018-03-04T00:24:34.785Z,1.32
2018-03-04T00:24:39.112Z,1.31
2018-03-04T00:24:43.330Z,1.32
2018-03-04T00:24:47.443Z,1.32
2018-03-04T00:24:51.564Z,1.32
2018-03-04T00:24:55.904Z,1.32
2018-03-04T00:24:59.911Z,1.31
2018-03-04T00:25:03.910Z,1.33
2018-03-04T00:25:08.025Z,1.32
2018-03-04T00:25:12.256Z,1.32
2018-03-04T00:25:16.475Z,1.32
2018-03-04T00:25:20.590Z,1.31
2018-03-04T00:25:24.714Z,1.32
2018-03-04T00:25:28.937Z,1.32
2018-03-04T00:25:33.163Z,1.32
2018-03-04T00:25:37.269Z,1.31
2018-03-04T00:25:41.384Z,1.31
2018-03-04T00:25:45.606Z,1.31
2018-03-04T00:25:49.610Z,1.32
2018-03-04T00:25:53.404Z,1.31
2018-03-04T00:25:57.408Z,1.31
2018-03-04T00:26:01.627Z,1.31
2018-03-04T00:26:05.954Z,1.31
2018-03-04T00:26:10.290Z,1.31
2018-03-04T00:26:14.512Z,1.31
2018-03-04T00:26:18.518Z,1.31
2018-03-04T00:26:22.407Z,1.31
2018-03-04T00:26:26.525Z,1.3
2018-03-04T00:26:30.430Z,1.31
2018-03-04T00:26:34.338Z,1.31
2018-03-04T00:26:38.569Z,1.3
2018-03-04T00:26:42.818Z,1.3
2018-03-04T00:26:46.829Z,1.31
2018-03-04T00:26:50.854Z,1.3
2018-03-04T00:26:54.971Z,1.3
2018-03-04T00:26:59.084Z,1.31
2018-03-04T00:27:03.199Z,1.31
2018-03-04T00:27:07.308Z,1.3
2018-03-04T00:27:11.206Z,1.3
2018-03-04T00:27:15.213Z,1.29
2018-03-04T00:27:19.214Z,1.3
2018-03-04T00:27:23.328Z,1.3
2018-03-04T00:27:27.343Z,1.3
2018-03-04T00:27:31.458Z,1.3
2018-03-04T00:27:35.361Z,1.3
2018-03-04T00:27:39.274Z,1.3
2018-03-04T00:27:43.544Z,1.29
2018-03-04T00:27:47.659Z,1.29
2018-03-04T00:27:51.674Z,1.3
2018-03-04T00:27:55.791Z,1.29
2018-03-04T00:27:59.900Z,1.3
2018-03-04T00:28:04.179Z,1.3
2018-03-04T00:28:08.198Z,1.29
2018-03-04T00:28:12.319Z,1.3
2018-03-04T00:28:16.436Z,1.3
2018-03-04T00:28:20.554Z,1.29
2018-03-04T00:28:24.566Z,1.29
2018-03-04T00:28:28.685Z,1.29
2018-03-04T00:28:32.799Z,1.29
2018-03-04T00:28:36.706Z,1.29
2018-03-04T00:28:40.707Z,1.3
2018-03-04T00:28:45.045Z,1.3
2018-03-04T00:28:49.163Z,1.3
2018-03-04T00:28:53.284Z,1.29
2018-03-04T00:28:57.178Z,1.29
2018-03-04T00:29:01.287Z,1.29
2018-03-04T00:29:05.610Z,1.29
2018-03-04T00:29:09.828Z,1.29
2018-03-04T00:29:13.728Z,1.28
2018-03-04T00:29:17.942Z,1.28
2018-03-04T00:29:22.051Z,1.29
2018-03-04T00:29:25.733Z,1.28
2018-03-04T00:29:29.961Z,1.29
2018-03-04T00:29:34.189Z,1.29
2018-03-04T00:29:38.302Z,1.28
2018-03-04T00:29:42.527Z,1.28
2018-03-04T00:29:46.531Z,1.29
2018-03-04T00:29:50.649Z,1.29
2018-03-04T00:29:54.545Z,1.29
2018-03-04T00:29:58.659Z,1.29
2018-03-04T00:30:02.501Z,1.29
2018-03-04T00:30:06.553Z,1.28
2018-03-04T00:30:10.556Z,1.27
2018-03-04T00:30:14.622Z,1.28
2018-03-04T00:30:18.731Z,1.29
2018-03-04T00:30:22.960Z,1.28
2018-03-04T00:30:26.978Z,1.28
2018-03-04T00:30:31.094Z,1.27
2018-03-04T00:30:35.214Z,1.28
2018-03-04T00:30:39.442Z,1.28
2018-03-04T00:30:43.556Z,1.27
2018-03-04T00:30:47.671Z,1.27
2018-03-04T00:30:51.791Z,1.27
2018-03-04T00:30:55.687Z,1.28
2018-03-04T00:30:59.590Z,1.27
2018-03-04T00:31:03.861Z,1.28
2018-03-04T00:31:08.191Z,1.29
2018-03-04T00:31:12.254Z,1.28
2018-03-04T00:31:16.473Z,1.27
2018-03-04T00:31:20.479Z,1.28
2018-03-04T00:31:24.704Z,1.27
2018-03-04T00:31:28.818Z,1.28
2018-03-04T00:31:33.044Z,1.28
2018-03-04T00:31:37.047Z,1.26
2018-03-04T00:31:41.158Z,1.27
2018-03-04T00:31:45.163Z,1.27
2018-03-04T00:31:49.281Z,1.27
2018-03-04T00:31:53.305Z,1.27
2018-03-04T00:31:57.195Z,1.27
2018-03-04T00:32:01.300Z,1.26
2018-03-04T00:32:05.411Z,1.26
2018-03-04T00:32:09.428Z,1.27
2018-03-04T00:32:13.647Z,1.27
2018-03-04T00:32:17.804Z,1.26
2018-03-04T00:32:21.816Z,1.27
2018-03-04T00:32:25.822Z,1.26
2018-03-04T00:32:29.935Z,1.27
2018-03-04T00:32:34.056Z,1.26
2018-03-04T00:32:38.168Z,1.26
2018-03-04T00:32:42.172Z,1.26
2018-03-04T00:32:46.252Z,1.26
2018-03-04T00:32:50.366Z,1.26
2018-03-04T00:32:54.167Z,1.26
2018-03-04T00:32:58.388Z,1.26
2018-03-04T00:33:02.590Z,1.25
2018-03-04T00:33:06.706Z,1.25
2018-03-04T00:33:10.821Z,1.25
2018-03-04T00:33:14.724Z,1.26
2018-03-04T00:33:18.729Z,1.25
2018-03-04T00:33:22.847Z,1.25
2018-03-04T00:33:26.857Z,1.25
2018-03-04T00:33:30.981Z,1.25
2018-03-04T00:33:35.197Z,1.25
2018-03-04T00:33:39.100Z,1.25
2018-03-04T00:33:43.207Z,1.25
2018-03-04T00:33:47.317Z,1.25
2018-03-04T00:33:51.648Z,1.24
2018-03-04T00:33:55.556Z,1.24
2018-03-04T00:33:59.671Z,1.25
2018-03-04T00:34:03.969Z,1.25
2018-03-04T00:34:07.874Z,1.24
2018-03-04T00:34:12.099Z,1.24
2018-03-04T00:34:16.120Z,1.23
2018-03-04T00:34:20.128Z,1.24
2018-03-04T00:34:24.240Z,1.23
2018-03-04T00:34:28.355Z,1.23
2018-03-04T00:34:32.357Z,1.24
2018-03-04T00:34:36.357Z,1.24
2018-03-04T00:34:40.473Z,1.23
2018-03-04T00:34:44.586Z,1.23
2018-03-04T00:34:48.803Z,1.23
2018-03-04T00:34:53.025Z,1.23
2018-03-04T00:34:57.252Z,1.23
2018-03-04T00:35:01.517Z,1.24
2018-03-04T00:35:05.645Z,1.23
2018-03-04T00:35:09.874Z,1.23
2018-03-04T00:35:14.101Z,1.23
2018-03-04T00:35:18.331Z,1.22
2018-03-04T00:35:22.442Z,1.21
2018-03-04T00:35:26.444Z,1.22
2018-03-04T00:35:30.448Z,1.22
2018-03-04T00:35:34.560Z,1.22
2018-03-04T00:35:38.353Z,1.22
2018-03-04T00:35:42.465Z,1.22
2018-03-04T00:35:46.369Z,1.22
2018-03-04T00:35:50.499Z,1.21
2018-03-04T00:35:54.752Z,1.22
2018-03-04T00:35:58.754Z,1.21
2018-03-04T00:36:02.775Z,1.21
2018-03-04T00:36:06.889Z,1.21
2018-03-04T00:36:10.901Z,1.21
2018-03-04T00:36:15.017Z,1.2
2018-03-04T00:36:19.134Z,1.21
2018-03-04T00:36:23.241Z,1.2
2018-03-04T00:36:27.511Z,1.2
2018-03-04T00:36:31.624Z,1.21
2018-03-04T00:36:35.955Z,1.2
2018-03-04T00:36:40.070Z,1.19
2018-03-04T00:36:44.305Z,1.2
2018-03-04T00:36:48.205Z,1.2
2018-03-04T00:36:52.426Z,1.19
2018-03-04T00:36:56.322Z,1.19
2018-03-04T00:37:00.217Z,1.19
2018-03-04T00:37:04.589Z,1.19
2018-03-04T00:37:08.606Z,1.2
2018-03-04T00:37:12.714Z,1.19
2018-03-04T00:37:16.736Z,1.19
2018-03-04T00:37:20.745Z,1.19
2018-03-04T00:37:24.858Z,1.19
2018-03-04T00:37:28.647Z,1.19
2018-03-04T00:37:32.648Z,1.19
2018-03-04T00:37:36.768Z,1.18
2018-03-04T00:37:40.817Z,1.18
2018-03-04T00:37:44.826Z,1.18
2018-03-04T00:37:48.826Z,1.18
2018-03-04T00:37:52.956Z,1.18
2018-03-04T00:37:56.963Z,1.18
2018-03-04T00:38:00.985Z,1.18
2018-03-04T00:38:05.218Z,1.18
2018-03-04T00:38:09.436Z,1.18
2018-03-04T00:38:13.437Z,1.18
2018-03-04T00:38:17.338Z,1.18
2018-03-04T00:38:21.235Z,1.17
2018-03-04T00:38:25.347Z,1.18
2018-03-04T00:38:29.354Z,1.18
2018-03-04T00:38:33.572Z,1.17
2018-03-04T00:38:37.681Z,1.17
2018-03-04T00:38:41.898Z,1.17
2018-03-04T00:38:46.016Z,1.17
2018-03-04T00:38:50.129Z,1.17
2018-03-04T00:38:54.243Z,1.17
2018-03-04T00:38:58.036Z,1.17
2018-03-04T00:39:02.150Z,1.17
2018-03-04T00:39:06.268Z,1.17
2018-03-04T00:39:10.171Z,1.16
2018-03-04T00:39:14.176Z,1.16
2018-03-04T00:39:18.294Z,1.16
2018-03-04T00:39:22.191Z,1.16
2018-03-04T00:39:26.304Z,1.16
2018-03-04T00:39:30.313Z,1.15
2018-03-04T00:39:34.434Z,1.15
2018-03-04T00:39:38.329Z,1.16
2018-03-04T00:39:42.557Z,1.16
2018-03-04T00:39:46.668Z,1.15
2018-03-04T00:39:50.779Z,1.16
2018-03-04T00:39:54.791Z,1.15
2018-03-04T00:39:58.796Z,1.14
2018-03-04T00:40:02.918Z,1.14
2018-03-04T00:40:07.031Z,1.14
2018-03-04T00:40:11.044Z,1.14
2018-03-04T00:40:15.155Z,1.14
2018-03-04T00:40:18.957Z,1.14
2018-03-04T00:40:23.077Z,1.14
2018-03-04T00:40:27.407Z,1.14
2018-03-04T00:40:31.415Z,1.14
2018-03-04T00:40:35.750Z,1.13
2018-03-04T00:40:39.752Z,1.14
2018-03-04T00:40:43.966Z,1.14
2018-03-04T00:40:47.858Z,1.14
2018-03-04T00:40:51.866Z,1.14
2018-03-04T00:40:55.978Z,1.13
2018-03-04T00:41:00.201Z,1.13
2018-03-04T00:41:04.308Z,1.14
2018-03-04T00:41:08.438Z,1.13
2018-03-04T00:41:12.225Z,1.13
2018-03-04T00:41:16.698Z,1.13
2018-03-04T00:41:20.596Z,1.13
2018-03-04T00:41:24.715Z,1.13
2018-03-04T00:41:28.940Z,1.13
2018-03-04T00:41:32.949Z,1.13
2018-03-04T00:41:37.056Z,1.13
2018-03-04T00:41:40.967Z,1.13
2018-03-04T00:41:44.868Z,1.13
2018-03-04T00:41:48.982Z,1.13
2018-03-04T00:41:53.098Z,1.13
2018-03-04T00:41:57.320Z,1.12
2018-03-04T00:42:01.756Z,1.12
2018-03-04T00:42:05.762Z,1.13
2018-03-04T00:42:09.769Z,1.12
2018-03-04T00:42:13.776Z,1.13
2018-03-04T00:42:17.840Z,1.13
2018-03-04T00:42:22.176Z,1.13
2018-03-04T00:42:26.464Z,1.13
2018-03-04T00:42:30.706Z,1.12
2018-03-04T00:42:35.046Z,1.11
2018-03-04T00:42:39.383Z,1.12
2018-03-04T00:42:43.712Z,1.12
2018-03-04T00:42:47.947Z,1.11
2018-03-04T00:42:52.278Z,1.12
2018-03-04T00:42:56.616Z,1.12
2018-03-04T00:43:00.849Z,1.12
2018-03-04T00:43:04.860Z,1.12
2018-03-04T00:43:08.872Z,1.11
2018-03-04T00:43:12.770Z,1.12
2018-03-04T00:43:16.991Z,1.11
2018-03-04T00:43:21.106Z,1.12
2018-03-04T00:43:25.012Z,1.11
2018-03-04T00:43:29.120Z,1.11
2018-03-04T00:43:33.232Z,1.12
2018-03-04T00:43:37.134Z,1.11
2018-03-04T00:43:41.143Z,1.12
2018-03-04T00:43:45.360Z,1.12
2018-03-04T00:43:49.260Z,1.11
2018-03-04T00:43:53.380Z,1.11
2018-03-04T00:43:57.484Z,1.11
2018-03-04T00:44:01.592Z,1.11
2018-03-04T00:44:05.971Z,1.11
2018-03-04T00:44:10.232Z,1.11
2018-03-04T00:44:14.451Z,1.11
2018-03-04T00:44:18.569Z,1.11
2018-03-04T00:44:22.466Z,1.11
2018-03-04T00:44:26.642Z,1.11
2018-03-04T00:44:30.753Z,1.11
2018-03-04T00:44:34.862Z,1.1
2018-03-04T00:44:39.198Z,1.1
2018-03-04T00:44:43.343Z,1.11
2018-03-04T00:44:47.569Z,1.1
2018-03-04T00:44:51.471Z,1.11
2018-03-04T00:44:55.371Z,1.11
2018-03-04T00:44:59.172Z,1.1
2018-03-04T00:45:03.179Z,1.11
2018-03-04T00:45:07.185Z,1.1
2018-03-04T00:45:11.410Z,1.11
2018-03-04T00:45:15.624Z,1.1
2018-03-04T00:45:19.734Z,1.1
2018-03-04T00:45:23.953Z,1.11
2018-03-04T00:45:28.180Z,1.1
2018-03-04T00:45:32.183Z,1.11
2018-03-04T00:45:36.184Z,1.1
2018-03-04T00:45:40.296Z,1.11
2018-03-04T00:45:44.411Z,1.1
2018-03-04T00:45:48.416Z,1.1
2018-03-04T00:45:52.315Z,1.11
2018-03-04T00:45:56.543Z,1.1
2018-03-04T00:46:00.778Z,1.11
2018-03-04T00:46:05.252Z,1.1
2018-03-04T00:46:09.475Z,1.1
2018-03-04T00:46:13.481Z,1.1
2018-03-04T00:46:17.810Z,1.1
2018-03-04T00:46:21.818Z,1.1
2018-03-04T00:46:26.035Z,1.1
2018-03-04T00:46:30.258Z,1.1
2018-03-04T00:46:34.154Z,1.1
2018-03-04T00:46:38.427Z,1.1
2018-03-04T00:46:42.542Z,1.1
2018-03-04T00:46:46.781Z,1.1
2018-03-04T00:46:50.794Z,1.11
2018-03-04T00:46:54.921Z,1.11
2018-03-04T00:46:59.036Z,1.09
2018-03-04T00:47:03.391Z,1.1
2018-03-04T00:47:07.613Z,1.09
2018-03-04T00:47:11.744Z,1.09
2018-03-04T00:47:15.865Z,1.1
2018-03-04T00:47:19.984Z,1.09
2018-03-04T00:47:23.993Z,1.1
2018-03-04T00:47:28.107Z,1.1
2018-03-04T00:47:32.216Z,1.09
2018-03-04T00:47:36.443Z,1.09
2018-03-04T00:47:40.452Z,1.09
2018-03-04T00:47:44.566Z,1.1
2018-03-04T00:47:48.460Z,1.1
2018-03-04T00:47:52.359Z,1.1
2018-03-04T00:47:56.474Z,1.1
2018-03-04T00:48:00.698Z,1.1
2018-03-04T00:48:05.146Z,1.09
2018-03-04T00:48:09.361Z,1.09
2018-03-04T00:48:13.368Z,1.09
2018-03-04T00:48:17.587Z,1.09
2018-03-04T00:48:21.596Z,1.09
2018-03-04T00:48:25.704Z,1.09
2018-03-04T00:48:29.493Z,1.1
2018-03-04T00:48:33.599Z,1.09
2018-03-04T00:48:37.724Z,1.09
2018-03-04T00:48:41.625Z,1.1
2018-03-04T00:48:45.744Z,1.1
2018-03-04T00:48:49.645Z,1.09
2018-03-04T00:48:53.653Z,1.09
2018-03-04T00:48:57.653Z,1.1
2018-03-04T00:49:02.083Z,1.1
2018-03-04T00:49:06.198Z,1.1
2018-03-04T00:49:10.324Z,1.1
2018-03-04T00:49:14.320Z,1.09
2018-03-04T00:49:18.552Z,1.1
2018-03-04T00:49:22.557Z,1.1
2018-03-04T00:49:26.457Z,1.09
2018-03-04T00:49:30.575Z,1.1
2018-03-04T00:49:34.691Z,1.09
2018-03-04T00:49:38.912Z,1.1
2018-03-04T00:49:42.915Z,1.09
2018-03-04T00:49:46.916Z,1.09
2018-03-04T00:49:50.809Z,1.09
2018-03-04T00:49:54.816Z,1.1
2018-03-04T00:49:58.831Z,1.09
2018-03-04T00:50:03.155Z,1.1
2018-03-04T00:50:07.393Z,1.09
2018-03-04T00:50:11.512Z,1.09
2018-03-04T00:50:15.737Z,1.09
2018-03-04T00:50:19.749Z,1.09
2018-03-04T00:50:23.971Z,1.09
2018-03-04T00:50:27.989Z,1.09
2018-03-04T00:50:31.912Z,1.09
2018-03-04T00:50:36.026Z,1.09
2018-03-04T00:50:40.247Z,1.09
2018-03-04T00:50:44.043Z,1.09
2018-03-04T00:50:48.090Z,1.09
2018-03-04T00:50:52.160Z,1.1
2018-03-04T00:50:56.057Z,1.09
2018-03-04T00:50:59.851Z,1.09
2018-03-04T00:51:04.311Z,1.09
2018-03-04T00:51:08.105Z,1.08
2018-03-04T00:51:12.217Z,1.09
2018-03-04T00:51:16.012Z,1.08
2018-03-04T00:51:20.250Z,1.08
2018-03-04T00:51:24.363Z,1.09
2018-03-04T00:51:28.577Z,1.08
2018-03-04T00:51:32.585Z,1.09
2018-03-04T00:51:36.804Z,1.08
2018-03-04T00:51:41.025Z,1.08
2018-03-04T00:51:45.240Z,1.08
2018-03-04T00:51:49.245Z,1.08
2018-03-04T00:51:53.458Z,1.09
2018-03-04T00:51:57.464Z,1.07
2018-03-04T00:52:01.680Z,1.08
2018-03-04T00:52:05.835Z,1.08
2018-03-04T00:52:09.745Z,1.08
2018-03-04T00:52:13.860Z,1.08
2018-03-04T00:52:17.862Z,1.08
2018-03-04T00:52:21.872Z,1.08
2018-03-04T00:52:25.888Z,1.08
2018-03-04T00:52:29.780Z,1.08
2018-03-04T00:52:33.791Z,1.08
2018-03-04T00:52:37.702Z,1.08
2018-03-04T00:52:41.708Z,1.08
2018-03-04T00:52:45.820Z,1.09
2018-03-04T00:52:49.726Z,1.08
2018-03-04T00:52:53.945Z,1.08
2018-03-04T00:52:57.847Z,1.08
2018-03-04T00:53:02.330Z,1.08
2018-03-04T00:53:06.446Z,1.08
2018-03-04T00:53:10.345Z,1.09
2018-03-04T00:53:14.350Z,1.08
2018-03-04T00:53:18.355Z,1.08
2018-03-04T00:53:22.445Z,1.08
2018-03-04T00:53:26.858Z,1.08
2018-03-04T00:53:31.027Z,1.08
2018-03-04T00:53:35.144Z,1.08
2018-03-04T00:53:39.369Z,1.08
2018-03-04T00:53:43.372Z,1.08
2018-03-04T00:53:47.485Z,1.08
2018-03-04T00:53:51.616Z,1.08
2018-03-04T00:53:55.728Z,1.08
2018-03-04T00:53:59.729Z,1.09
2018-03-04T00:54:04.211Z,1.08
2018-03-04T00:54:08.326Z,1.09
2018-03-04T00:54:12.550Z,1.09
2018-03-04T00:54:16.559Z,1.08
2018-03-04T00:54:20.671Z,1.08
2018-03-04T00:54:24.679Z,1.08
2018-03-04T00:54:28.692Z,1.08
2018-03-04T00:54:32.920Z,1.07
2018-03-04T00:54:36.933Z,1.08
2018-03-04T00:54:41.053Z,1.08
2018-03-04T00:54:45.166Z,1.09